Time;durP1;ratioP1;P1;durP2;ratioP2;P2;SDS_P1;SDS_P2;PMS_P1;PMS_P2;Temp;Humidity;BMP_temperature;BMP_pressure;BME280_temperature;BME280_humidity;BME280_pressure;Samples;Min_cycle;Max_cycle;Signal;HPM_P1;HPM_P2
2023/12/21 00:00:33;;;;;;;16.15;9.35;;;;;;;7.84;100.00;100513.13;6306204;22;20004;-78
2023/12/21 00:02:58;;;;;;;18.05;8.00;;;;;;;7.87;100.00;100504.75;6306241;22;20057;-76
2023/12/21 00:05:24;;;;;;;14.35;6.78;;;;;;;7.93;100.00;100498.59;6306285;22;20057;-78
2023/12/21 00:07:49;;;;;;;16.80;7.05;;;;;;;7.97;100.00;100486.50;6306396;22;20087;-77
2023/12/21 00:10:14;;;;;;;15.00;6.68;;;;;;;7.96;100.00;100490.19;6304479;22;20045;-77
2023/12/21 00:12:40;;;;;;;12.93;6.68;;;;;;;7.93;100.00;100474.63;6306233;22;20058;-76
2023/12/21 00:15:06;;;;;;;12.77;6.80;;;;;;;8.00;100.00;100468.25;6304398;22;20089;-78
2023/12/21 00:17:32;;;;;;;18.92;7.50;;;;;;;7.94;100.00;100476.25;6304772;22;20007;-76
2023/12/21 00:19:57;;;;;;;13.70;7.15;;;;;;;7.92;100.00;100457.84;6306114;22;20022;-78
2023/12/21 00:22:22;;;;;;;17.58;6.18;;;;;;;7.99;100.00;100471.94;6304502;22;20436;-78
2023/12/21 00:24:48;;;;;;;13.40;7.05;;;;;;;7.96;100.00;100466.22;6306063;22;20026;-78
2023/12/21 00:27:13;;;;;;;14.20;6.95;;;;;;;8.00;100.00;100460.28;6305963;22;20007;-77
2023/12/21 00:29:38;;;;;;;13.00;7.47;;;;;;;7.92;100.00;100449.03;6306101;22;20027;-79
2023/12/21 00:32:04;;;;;;;15.93;7.15;;;;;;;7.90;100.00;100443.91;6306217;22;20003;-77
2023/12/21 00:34:30;;;;;;;13.48;6.78;;;;;;;7.95;100.00;100437.97;6306211;22;20491;-78
2023/12/21 00:36:55;;;;;;;18.95;7.72;;;;;;;7.91;100.00;100442.06;6304305;22;20428;-79
2023/12/21 00:39:20;;;;;;;14.95;7.25;;;;;;;7.91;100.00;100439.41;6304422;22;20436;-78
2023/12/21 00:41:46;;;;;;;13.90;7.13;;;;;;;7.90;100.00;100441.25;6304320;22;20003;-78
2023/12/21 00:44:11;;;;;;;18.13;8.32;;;;;;;7.91;100.00;100434.09;6306157;22;20011;-79
2023/12/21 00:46:36;;;;;;;15.50;5.57;;;;;;;7.87;100.00;100422.22;6304278;22;20432;-79
2023/12/21 00:49:02;;;;;;;16.08;7.20;;;;;;;7.91;100.00;100418.94;6306106;22;20077;-79
2023/12/21 00:51:27;;;;;;;15.48;7.03;;;;;;;7.91;100.00;100412.78;6304578;22;20006;-78
2023/12/21 00:53:53;;;;;;;12.68;6.65;;;;;;;7.91;100.00;100408.28;6306097;22;20003;-77
2023/12/21 00:56:18;;;;;;;13.75;7.65;;;;;;;7.88;100.00;100413.22;6305979;22;20061;-78
2023/12/21 00:58:43;;;;;;;12.68;7.30;;;;;;;7.78;100.00;100397.63;6306070;22;20417;-79
2023/12/21 01:01:09;;;;;;;18.05;7.40;;;;;;;7.83;100.00;100391.72;6305962;22;20389;-77
2023/12/21 01:03:34;;;;;;;13.90;6.95;;;;;;;7.78;100.00;100384.34;6304285;22;20011;-78
2023/12/21 01:05:59;;;;;;;12.50;7.28;;;;;;;7.81;100.00;100383.13;6306141;22;20011;-78
2023/12/21 01:08:25;;;;;;;15.75;7.45;;;;;;;7.77;100.00;100370.22;6306049;22;20003;-78
2023/12/21 01:10:50;;;;;;;19.98;7.15;;;;;;;7.76;100.00;100357.94;6306084;22;20003;-79
2023/12/21 01:13:15;;;;;;;14.98;8.20;;;;;;;7.82;100.00;100361.63;6304285;22;20006;-78
2023/12/21 01:15:41;;;;;;;18.48;7.47;;;;;;;7.74;100.00;100344.00;6304224;22;20007;-80
2023/12/21 01:18:06;;;;;;;18.17;6.95;;;;;;;7.80;100.00;100346.88;6304379;22;20003;-78
2023/12/21 01:20:32;;;;;;;16.55;7.35;;;;;;;7.76;100.00;100339.28;6304251;22;20428;-78
2023/12/21 01:22:57;;;;;;;17.80;7.57;;;;;;;7.77;100.00;100354.25;6304221;22;19999;-78
2023/12/21 01:25:22;;;;;;;16.45;6.93;;;;;;;7.82;100.00;100350.16;6305692;22;20014;-78
2023/12/21 01:27:48;;;;;;;11.05;5.97;;;;;;;7.85;100.00;100361.22;6304028;22;20057;-79
2023/12/21 01:30:13;;;;;;;15.88;6.65;;;;;;;7.80;100.00;100346.88;6305801;22;20007;-80
2023/12/21 01:32:38;;;;;;;21.13;8.00;;;;;;;7.80;100.00;100341.53;6305861;22;20074;-78
2023/12/21 01:35:04;;;;;;;12.70;6.82;;;;;;;7.85;100.00;100341.75;6305778;22;20068;-80
2023/12/21 01:37:29;;;;;;;21.75;9.50;;;;;;;7.76;100.00;100307.38;6305949;22;20007;-77
2023/12/21 01:39:55;;;;;;;20.67;9.30;;;;;;;7.81;100.00;100316.59;6305345;22;20003;-77
2023/12/21 01:42:20;;;;;;;21.98;8.40;;;;;;;7.84;100.00;100322.31;6305879;22;20003;-78
2023/12/21 01:44:46;;;;;;;19.02;7.30;;;;;;;7.91;100.00;100331.09;6304264;22;20392;-78
2023/12/21 01:47:12;;;;;;;17.38;7.18;;;;;;;7.87;100.00;100324.56;6304204;22;20056;-78
2023/12/21 01:49:38;;;;;;;18.17;7.70;;;;;;;7.83;100.00;100314.53;6304160;22;20090;-79
2023/12/21 01:52:05;;;;;;;16.63;8.70;;;;;;;7.88;100.00;100326.19;6305805;22;20003;-80
2023/12/21 01:54:31;;;;;;;14.57;7.20;;;;;;;7.90;100.00;100305.50;6305847;22;20003;-78
2023/12/21 01:56:56;;;;;;;11.82;6.88;;;;;;;7.90;100.00;100310.81;6305757;22;20038;-77
2023/12/21 01:59:22;;;;;;;15.98;8.98;;;;;;;7.88;100.00;100309.41;6305802;22;20424;-77
2023/12/21 02:01:47;;;;;;;17.17;8.88;;;;;;;7.92;100.00;100321.25;6305770;22;20435;-77
2023/12/21 02:04:13;;;;;;;19.05;7.32;;;;;;;7.93;100.00;100323.72;6303987;22;20022;-78
2023/12/21 02:06:39;;;;;;;16.25;7.78;;;;;;;7.84;100.00;100318.84;6305689;22;20007;-78
2023/12/21 02:09:04;;;;;;;16.20;8.43;;;;;;;7.87;100.00;100319.22;6304122;22;20007;-77
2023/12/21 02:11:30;;;;;;;13.18;8.50;;;;;;;7.86;100.00;100311.44;6330211;22;20425;-76
2023/12/21 02:13:55;;;;;;;12.07;8.13;;;;;;;7.90;100.00;100323.31;6303874;22;20129;-76
2023/12/21 02:16:27;;;;;;;21.85;8.75;;;;;;;7.85;100.00;100331.13;6305581;22;20010;-78
2023/12/21 02:18:53;;;;;;;23.60;8.52;;;;;;;7.87;100.00;100311.25;6304007;22;20003;-77
2023/12/21 02:21:20;;;;;;;16.67;8.02;;;;;;;7.91;100.00;100306.31;6305655;22;20025;-79
2023/12/21 02:23:48;;;;;;;25.08;9.52;;;;;;;7.84;100.00;100297.53;6303967;22;20069;-79
2023/12/21 02:26:14;;;;;;;19.08;8.45;;;;;;;7.81;100.00;100292.63;6305641;22;20080;-80
2023/12/21 02:28:39;;;;;;;15.05;8.43;;;;;;;7.91;100.00;100282.34;6305494;22;20007;-78
2023/12/21 02:31:05;;;;;;;15.02;7.93;;;;;;;7.86;100.00;100292.81;6305526;22;20424;-79
2023/12/21 02:33:30;;;;;;;20.60;8.98;;;;;;;7.80;100.00;100267.84;6305630;22;19999;-78
2023/12/21 02:35:55;;;;;;;17.42;9.32;;;;;;;7.87;100.00;100255.34;6303820;22;20015;-79
2023/12/21 02:38:20;;;;;;;18.10;8.88;;;;;;;7.83;100.00;100264.78;6303855;22;20009;-80
2023/12/21 02:40:46;;;;;;;20.45;9.25;;;;;;;7.77;100.00;100237.16;6303767;22;20007;-78
2023/12/21 02:43:11;;;;;;;18.75;9.30;;;;;;;7.83;100.00;100245.34;6303744;22;20003;-78
2023/12/21 02:45:36;;;;;;;22.15;8.63;;;;;;;7.79;100.00;100236.94;6305366;22;20087;-78
2023/12/21 02:48:02;;;;;;;21.67;9.10;;;;;;;7.79;100.00;100244.91;6305402;22;20030;-80
2023/12/21 02:50:27;;;;;;;21.35;8.50;;;;;;;7.80;100.00;100245.72;6304530;22;20007;-80
2023/12/21 02:52:52;;;;;;;21.52;8.63;;;;;;;7.81;100.00;100248.22;6305350;22;20413;-80
2023/12/21 02:55:18;;;;;;;21.35;8.40;;;;;;;7.84;100.00;100246.97;6303637;22;20437;-79
2023/12/21 02:57:43;;;;;;;16.63;7.10;;;;;;;7.80;100.00;100235.09;6305233;22;20027;-80
2023/12/21 03:00:09;;;;;;;19.55;8.45;;;;;;;7.80;100.00;100229.75;6303628;22;20007;-78
2023/12/21 03:02:34;;;;;;;17.65;8.70;;;;;;;7.76;100.00;100213.41;6303789;22;20046;-78
2023/12/21 03:05:00;;;;;;;20.67;9.40;;;;;;;7.86;100.00;100232.41;6305431;22;20087;-78
2023/12/21 03:07:25;;;;;;;15.50;7.43;;;;;;;7.90;100.00;100238.13;6305265;22;20038;-78
2023/12/21 03:09:50;;;;;;;19.65;8.45;;;;;;;7.90;100.00;100222.97;6303700;22;20007;-77
2023/12/21 03:12:16;;;;;;;16.38;8.23;;;;;;;7.85;100.00;100222.81;6305485;22;20331;-77
2023/12/21 03:14:41;;;;;;;17.02;7.43;;;;;;;7.88;100.00;100197.59;6305278;22;20004;-79
2023/12/21 03:17:06;;;;;;;19.70;8.05;;;;;;;7.86;100.00;100189.84;6303491;22;20016;-78
2023/12/21 03:19:32;;;;;;;17.95;7.15;;;;;;;7.88;100.00;100163.00;6305156;22;20011;-78
2023/12/21 03:21:57;;;;;;;18.17;8.80;;;;;;;7.87;100.00;100148.88;6303594;22;20042;-80
2023/12/21 03:24:23;;;;;;;19.83;7.53;;;;;;;7.88;100.00;100155.84;6303366;22;20009;-79
2023/12/21 03:26:48;;;;;;;14.30;7.20;;;;;;;7.83;100.00;100133.56;6303444;22;20011;-77
2023/12/21 03:29:14;;;;;;;22.50;7.85;;;;;;;7.89;100.00;100122.88;6304976;22;20007;-78
2023/12/21 03:31:40;;;;;;;19.20;7.35;;;;;;;7.96;100.00;100126.28;6304939;22;20416;-77
2023/12/21 03:34:05;;;;;;;14.30;7.00;;;;;;;7.93;100.00;100128.56;6304942;22;20045;-78
2023/12/21 03:36:31;;;;;;;21.45;7.03;;;;;;;7.95;100.00;100132.66;6304778;22;20018;-78
2023/12/21 03:38:56;;;;;;;18.92;7.50;;;;;;;8.05;100.00;100118.84;6304888;22;20003;-78
2023/12/21 03:41:21;;;;;;;13.25;6.05;;;;;;;7.95;100.00;100116.69;6305058;22;19999;-77
2023/12/21 03:43:47;;;;;;;17.25;6.70;;;;;;;8.00;100.00;100098.22;6304937;22;20003;-78
2023/12/21 03:46:12;;;;;;;22.77;8.13;;;;;;;7.98;100.00;100108.25;6305312;22;20061;-79
2023/12/21 03:48:37;;;;;;;18.88;7.20;;;;;;;7.96;100.00;100107.66;6303390;22;20000;-79
2023/12/21 03:51:03;;;;;;;18.25;6.90;;;;;;;8.01;100.00;100093.69;6303316;22;20361;-77
2023/12/21 03:53:28;;;;;;;15.48;5.72;;;;;;;8.04;100.00;100109.25;6303477;22;20306;-77
2023/12/21 03:55:53;;;;;;;20.27;7.78;;;;;;;8.01;100.00;100091.84;6304828;22;20113;-77
2023/12/21 03:58:19;;;;;;;14.68;6.82;;;;;;;8.03;100.00;100097.78;6304824;22;20084;-78
2023/12/21 04:00:44;;;;;;;18.20;7.15;;;;;;;7.92;100.00;100077.19;6303178;22;20007;-77
2023/12/21 04:03:09;;;;;;;17.55;7.28;;;;;;;8.02;100.00;100055.41;6304270;22;20006;-77
2023/12/21 04:05:37;;;;;;;18.42;7.38;;;;;;;8.12;100.00;100081.56;6306176;22;20022;-77
2023/12/21 04:08:03;;;;;;;21.48;7.75;;;;;;;8.10;100.00;100086.28;6304550;22;20007;-76
2023/12/21 04:10:28;;;;;;;21.50;7.13;;;;;;;8.04;100.00;100070.13;6304643;22;20526;-76
2023/12/21 04:12:54;;;;;;;20.67;7.88;;;;;;;8.10;100.00;100047.16;6306268;22;20007;-78
2023/12/21 04:15:19;;;;;;;16.33;8.05;;;;;;;8.10;100.00;100057.81;6304452;22;20013;-77
2023/12/21 04:17:44;;;;;;;13.90;7.00;;;;;;;8.18;100.00;100057.53;6304597;22;20034;-78
2023/12/21 04:20:10;;;;;;;16.70;7.40;;;;;;;8.17;100.00;100061.22;6304622;22;19999;-78
2023/12/21 04:22:35;;;;;;;16.67;7.32;;;;;;;8.25;100.00;100047.63;6306068;22;20012;-77
2023/12/21 04:25:01;;;;;;;19.38;8.13;;;;;;;8.31;100.00;100044.09;6304786;22;20098;-78
2023/12/21 04:27:28;;;;;;;20.08;8.30;;;;;;;8.22;100.00;100037.41;6306100;22;20003;-78
2023/12/21 04:29:53;;;;;;;16.58;6.82;;;;;;;8.32;100.00;100036.91;6306276;22;20003;-78
2023/12/21 04:32:19;;;;;;;21.83;10.38;;;;;;;8.23;100.00;100031.06;6304327;22;20011;-78
2023/12/21 04:34:45;;;;;;;18.38;9.15;;;;;;;8.33;100.00;100049.19;6304528;22;20014;-76
2023/12/21 04:37:10;;;;;;;19.30;8.35;;;;;;;8.34;100.00;100014.38;6304063;22;20012;-78
2023/12/21 04:39:35;;;;;;;23.25;8.18;;;;;;;8.38;100.00;99988.13;6304553;22;20018;-77
2023/12/21 04:42:01;;;;;;;19.27;9.75;;;;;;;8.45;100.00;99990.72;6306259;22;20003;-77
2023/12/21 04:44:26;;;;;;;22.05;9.63;;;;;;;8.45;100.00;99999.53;6306221;22;19995;-76
2023/12/21 04:46:51;;;;;;;21.20;8.95;;;;;;;8.48;100.00;100011.59;6305941;22;20101;-77
2023/12/21 04:49:19;;;;;;;24.95;9.70;;;;;;;8.43;100.00;100004.28;6304378;22;20052;-79
2023/12/21 04:51:45;;;;;;;21.02;9.35;;;;;;;8.41;100.00;99986.88;6304545;22;20061;-78
2023/12/21 04:54:11;;;;;;;23.67;9.20;;;;;;;8.45;100.00;99969.44;6306086;22;20415;-78
2023/12/21 04:56:41;;;;;;;22.30;9.70;;;;;;;8.54;100.00;99978.75;6305824;22;20064;-77
2023/12/21 04:59:06;;;;;;;21.27;8.63;;;;;;;8.56;100.00;99955.34;6306567;22;20014;-76
2023/12/21 05:01:32;;;;;;;17.52;9.05;;;;;;;8.71;100.00;99939.00;6306067;22;20007;-77
2023/12/21 05:03:57;;;;;;;23.55;8.50;;;;;;;8.61;100.00;99944.84;6305879;22;20125;-77
2023/12/21 05:06:22;;;;;;;17.27;8.02;;;;;;;8.71;100.00;99933.66;6304364;22;20053;-79
2023/12/21 05:08:48;;;;;;;15.25;8.00;;;;;;;8.69;100.00;99931.22;6305964;22;20010;-76
2023/12/21 05:11:13;;;;;;;15.70;7.15;;;;;;;8.73;100.00;99935.06;6304197;22;20041;-76
2023/12/21 05:13:39;;;;;;;17.55;7.70;;;;;;;8.65;100.00;99949.50;6303607;22;19996;-79
2023/12/21 05:16:05;;;;;;;14.13;7.70;;;;;;;8.68;100.00;99938.41;6304138;22;20086;-78
2023/12/21 05:18:30;;;;;;;15.27;6.72;;;;;;;8.74;100.00;99926.03;6305842;22;20042;-79
2023/12/21 05:20:56;;;;;;;18.77;7.05;;;;;;;8.78;100.00;99940.53;6304191;22;20011;-77
2023/12/21 05:23:21;;;;;;;14.75;5.95;;;;;;;8.69;100.00;99950.69;6305910;22;20023;-78
2023/12/21 05:25:46;;;;;;;13.80;7.28;;;;;;;8.73;100.00;99951.06;6304144;22;20011;-77
2023/12/21 05:28:13;;;;;;;18.10;6.57;;;;;;;8.75;100.00;99938.31;6304153;22;20086;-79
2023/12/21 05:30:38;;;;;;;15.55;6.45;;;;;;;8.69;100.00;99905.38;6304310;22;20033;-79
2023/12/21 05:33:04;;;;;;;10.95;5.78;;;;;;;8.83;100.00;99916.69;6305853;22;20468;-77
2023/12/21 05:35:29;;;;;;;14.63;5.85;;;;;;;8.84;100.00;99912.97;6305630;22;20057;-77
2023/12/21 05:37:54;;;;;;;11.48;4.90;;;;;;;8.76;100.00;99910.63;6305860;22;20031;-79
2023/12/21 05:40:22;;;;;;;11.43;5.10;;;;;;;8.80;100.00;99900.31;6305725;22;20027;-78
2023/12/21 05:42:47;;;;;;;10.45;4.57;;;;;;;8.96;100.00;99905.84;6304129;22;20403;-77
2023/12/21 05:45:13;;;;;;;10.95;4.70;;;;;;;8.92;100.00;99919.84;6306348;22;19999;-77
2023/12/21 05:47:38;;;;;;;12.05;5.30;;;;;;;8.91;100.00;99918.22;6304147;22;20443;-77
2023/12/21 05:50:04;;;;;;;12.45;4.40;;;;;;;8.93;100.00;99914.28;6304239;22;20094;-76
2023/12/21 05:52:30;;;;;;;8.43;4.10;;;;;;;8.94;100.00;99923.91;6305519;22;20008;-76
2023/12/21 05:54:55;;;;;;;13.25;3.95;;;;;;;8.90;100.00;99904.06;6304108;22;20068;-79
2023/12/21 05:57:21;;;;;;;6.28;3.42;;;;;;;8.99;100.00;99912.59;6305547;22;20010;-76
2023/12/21 05:59:46;;;;;;;8.02;3.47;;;;;;;9.06;100.00;99931.97;6306009;22;20416;-76
2023/12/21 06:02:12;;;;;;;9.95;4.30;;;;;;;9.06;100.00;99944.47;6304103;22;20038;-77
2023/12/21 06:04:37;;;;;;;9.27;4.00;;;;;;;9.00;100.00;99930.22;6305714;22;20000;-77
2023/12/21 06:07:03;;;;;;;13.93;4.53;;;;;;;8.89;100.00;99930.94;6303959;22;20097;-77
2023/12/21 06:09:28;;;;;;;10.13;4.93;;;;;;;8.84;100.00;99922.81;6305737;22;20010;-78
2023/12/21 06:11:54;;;;;;;10.63;5.03;;;;;;;8.79;100.00;99917.34;6304263;22;20072;-78
2023/12/21 06:14:19;;;;;;;12.75;5.32;;;;;;;8.67;100.00;99901.28;6306110;22;20011;-75
2023/12/21 06:16:45;;;;;;;13.48;5.18;;;;;;;8.57;100.00;99893.84;6304016;22;20030;-77
2023/12/21 06:19:10;;;;;;;9.00;5.10;;;;;;;8.58;100.00;99895.47;6305432;22;20060;-77
2023/12/21 06:21:39;;;;;;;11.02;5.50;;;;;;;8.55;100.00;99871.94;6303986;22;20056;-78
2023/12/21 06:24:06;;;;;;;8.45;5.35;;;;;;;8.48;100.00;99841.91;6305534;22;20007;-77
2023/12/21 06:26:31;;;;;;;12.60;6.70;;;;;;;8.47;100.00;99852.78;6305729;22;20007;-76
2023/12/21 06:28:57;;;;;;;13.82;7.05;;;;;;;8.50;100.00;99855.81;6305705;22;20362;-76
2023/12/21 06:31:23;;;;;;;12.82;6.72;;;;;;;8.46;100.00;99856.50;6305665;22;20374;-76
2023/12/21 06:33:49;;;;;;;11.88;6.68;;;;;;;8.45;100.00;99855.69;6305434;22;20070;-77
2023/12/21 06:36:14;;;;;;;11.88;6.45;;;;;;;8.47;100.00;99858.13;6303669;22;20297;-79
2023/12/21 06:38:40;;;;;;;13.35;5.78;;;;;;;8.56;100.00;99862.09;6305621;22;20424;-78
2023/12/21 06:41:05;;;;;;;13.05;6.95;;;;;;;8.51;100.00;99857.44;6305393;22;20030;-76
2023/12/21 06:43:31;;;;;;;13.15;6.68;;;;;;;8.52;100.00;99848.41;6303691;22;20090;-77
2023/12/21 06:45:57;;;;;;;16.35;6.85;;;;;;;8.57;100.00;99858.38;6305428;22;20007;-77
2023/12/21 06:48:22;;;;;;;18.45;6.80;;;;;;;8.57;100.00;99848.53;6305400;22;20003;-78
2023/12/21 06:50:48;;;;;;;11.60;6.38;;;;;;;8.56;100.00;99830.13;6303976;22;20431;-77
2023/12/21 06:53:15;;;;;;;11.30;5.18;;;;;;;8.60;100.00;99839.28;6303739;22;20337;-77
2023/12/21 06:55:42;;;;;;;8.35;4.35;;;;;;;8.60;100.00;99825.97;6305278;22;20761;-78
2023/12/21 06:58:07;;;;;;;10.05;5.28;;;;;;;8.61;100.00;99811.59;6303598;22;20008;-78
2023/12/21 07:00:33;;;;;;;9.50;5.47;;;;;;;8.49;100.00;99771.59;6303635;22;20069;-79
2023/12/21 07:03:00;;;;;;;16.13;6.15;;;;;;;8.66;100.00;99782.41;6303656;22;20007;-79
2023/12/21 07:05:25;;;;;;;13.57;5.90;;;;;;;8.59;100.00;99803.84;6305230;22;20003;-77
2023/12/21 07:07:50;;;;;;;14.55;5.93;;;;;;;8.67;100.00;99784.03;6305166;22;20014;-77
2023/12/21 07:10:16;;;;;;;11.02;5.10;;;;;;;8.63;100.00;99782.88;6303668;22;20011;-77
2023/12/21 07:12:41;;;;;;;11.00;5.43;;;;;;;8.69;100.00;99774.81;6305330;22;20328;-78
2023/12/21 07:15:07;;;;;;;10.77;4.82;;;;;;;8.69;100.00;99774.00;6305056;22;20004;-76
2023/12/21 07:17:32;;;;;;;9.93;4.70;;;;;;;8.72;100.00;99786.06;6305302;22;20078;-76
2023/12/21 07:19:57;;;;;;;11.40;5.30;;;;;;;8.71;100.00;99779.91;6305002;22;20413;-79
2023/12/21 07:22:23;;;;;;;10.20;4.28;;;;;;;8.73;100.00;99769.03;6305294;22;20003;-76
2023/12/21 07:24:49;;;;;;;11.98;3.88;;;;;;;8.75;100.00;99775.75;6304966;22;20098;-78
2023/12/21 07:27:15;;;;;;;10.70;5.22;;;;;;;8.79;100.00;99760.09;6303405;22;20011;-80
2023/12/21 07:29:41;;;;;;;12.10;4.65;;;;;;;8.85;100.00;99736.00;6305025;22;20074;-79
2023/12/21 07:32:06;;;;;;;9.23;3.72;;;;;;;8.81;100.00;99755.34;6303321;22;20445;-77
2023/12/21 07:34:32;;;;;;;12.18;4.68;;;;;;;8.87;100.00;99746.44;6305059;22;20009;-78
2023/12/21 07:36:57;;;;;;;10.40;4.18;;;;;;;8.93;100.00;99748.97;6305285;22;20007;-78
2023/12/21 07:39:22;;;;;;;6.55;3.25;;;;;;;9.00;100.00;99730.22;6306236;22;20003;-80
2023/12/21 07:41:48;;;;;;;8.80;3.67;;;;;;;9.05;100.00;99717.00;6304942;22;20060;-78
2023/12/21 07:44:13;;;;;;;12.93;4.10;;;;;;;9.04;100.00;99725.25;6304647;22;20038;-80
2023/12/21 07:46:39;;;;;;;10.73;3.55;;;;;;;8.93;100.00;99725.00;6306354;22;20011;-79
2023/12/21 07:49:04;;;;;;;8.38;3.92;;;;;;;8.92;100.00;99712.69;6306599;22;20014;-79
2023/12/21 07:51:29;;;;;;;8.27;4.05;;;;;;;9.05;100.00;99722.34;6306311;22;20011;-80
2023/12/21 07:53:55;;;;;;;11.20;4.15;;;;;;;9.10;100.00;99719.78;6306349;22;20011;-78
2023/12/21 07:56:21;;;;;;;7.05;4.18;;;;;;;9.03;100.00;99711.09;6306107;22;20332;-79
2023/12/21 07:58:46;;;;;;;8.18;4.38;;;;;;;8.97;100.00;99710.19;6306199;22;20374;-79
2023/12/21 08:01:12;;;;;;;12.20;4.60;;;;;;;8.84;100.00;99715.72;6306203;22;20082;-78
2023/12/21 08:03:37;;;;;;;8.30;4.72;;;;;;;8.82;100.00;99704.47;6306373;22;20344;-80
2023/12/21 08:06:03;;;;;;;9.43;4.63;;;;;;;8.87;100.00;99695.78;6306197;22;20060;-79
2023/12/21 08:08:29;;;;;;;9.70;4.97;;;;;;;8.83;100.00;99679.44;6306134;22;20007;-81
2023/12/21 08:10:54;;;;;;;10.00;4.85;;;;;;;8.86;100.00;99702.16;6306184;22;20004;-78
2023/12/21 08:13:20;;;;;;;6.63;4.47;;;;;;;8.83;100.00;99694.63;6304637;22;20022;-80
2023/12/21 08:15:45;;;;;;;12.15;4.97;;;;;;;8.76;100.00;99677.94;6304543;22;20089;-81
2023/12/21 08:18:13;;;;;;;6.45;4.28;;;;;;;8.82;100.00;99693.81;6306293;22;20007;-80
2023/12/21 08:20:41;;;;;;;10.70;4.88;;;;;;;8.85;100.00;99698.69;6304810;22;20331;-80
2023/12/21 08:23:07;;;;;;;8.45;4.45;;;;;;;8.75;100.00;99689.66;6306411;22;20014;-80
2023/12/21 08:25:32;;;;;;;8.13;4.53;;;;;;;8.79;100.00;99680.16;6306180;22;20011;-79
2023/12/21 08:27:58;;;;;;;10.65;4.78;;;;;;;8.88;100.00;99673.41;6305945;22;20014;-79
2023/12/21 08:30:23;;;;;;;6.43;4.40;;;;;;;8.84;100.00;99669.59;6306141;22;20018;-80
2023/12/21 08:32:49;;;;;;;11.27;4.72;;;;;;;8.91;100.00;99662.28;6304481;22;20493;-83
2023/12/21 08:35:14;;;;;;;5.05;3.50;;;;;;;8.84;100.00;99646.41;6306022;22;20333;-79
2023/12/21 08:37:40;;;;;;;6.60;3.85;;;;;;;8.81;100.00;99662.06;6305942;22;20015;-78
2023/12/21 08:40:05;;;;;;;7.25;4.32;;;;;;;8.79;100.00;99654.31;6306130;22;20027;-78
2023/12/21 08:42:31;;;;;;;6.15;3.90;;;;;;;8.79;100.00;99648.97;6306055;22;20004;-80
2023/12/21 08:44:59;;;;;;;9.70;4.43;;;;;;;8.76;100.00;99665.44;6304536;22;20349;-80
2023/12/21 08:47:25;;;;;;;8.63;3.95;;;;;;;8.85;100.00;99637.38;6305941;22;20428;-79
2023/12/21 08:49:50;;;;;;;6.68;4.18;;;;;;;8.87;100.00;99653.13;6305722;22;20034;-80
2023/12/21 08:52:15;;;;;;;8.57;4.28;;;;;;;8.85;100.00;99641.91;6304456;22;20374;-80
2023/12/21 08:54:41;;;;;;;9.68;4.38;;;;;;;8.86;100.00;99635.53;6304528;22;20007;-80
2023/12/21 08:57:07;;;;;;;7.88;4.43;;;;;;;8.92;100.00;99618.59;6306060;22;20019;-80
2023/12/21 08:59:32;;;;;;;9.45;3.85;;;;;;;8.99;100.00;99611.31;6305986;22;20007;-79
2023/12/21 09:01:58;;;;;;;6.88;3.40;;;;;;;9.07;100.00;99626.13;6304444;22;20011;-78
2023/12/21 09:04:24;;;;;;;6.70;3.80;;;;;;;9.06;100.00;99621.84;6305991;22;20007;-79
2023/12/21 09:06:49;;;;;;;7.90;4.47;;;;;;;8.98;100.00;99597.16;6304363;22;20065;-79
2023/12/21 09:09:15;;;;;;;5.05;3.20;;;;;;;9.05;100.00;99622.88;6304306;22;20011;-80
2023/12/21 09:11:41;;;;;;;8.52;3.50;;;;;;;9.16;100.00;99624.72;6305885;22;19999;-78
2023/12/21 09:14:07;;;;;;;7.60;3.30;;;;;;;9.12;100.00;99621.72;6304311;22;20018;-77
2023/12/21 09:16:33;;;;;;;8.00;3.13;;;;;;;9.12;100.00;99600.38;6304362;22;20341;-78
2023/12/21 09:18:58;;;;;;;6.90;3.45;;;;;;;9.29;100.00;99597.78;6304163;22;20031;-76
2023/12/21 09:21:24;;;;;;;11.85;3.95;;;;;;;9.28;100.00;99620.19;6304311;22;20387;-80
2023/12/21 09:23:49;;;;;;;9.02;3.40;;;;;;;9.23;100.00;99610.19;6305826;22;20420;-76
2023/12/21 09:26:15;;;;;;;5.43;3.17;;;;;;;9.26;100.00;99612.41;6304180;22;20049;-78
2023/12/21 09:28:41;;;;;;;6.75;3.17;;;;;;;9.24;100.00;99569.13;6305904;22;20003;-80
2023/12/21 09:31:07;;;;;;;4.35;2.70;;;;;;;9.31;100.00;99577.03;6304455;22;20022;-80
2023/12/21 09:33:34;;;;;;;9.68;3.38;;;;;;;9.40;100.00;99572.94;6305986;22;20034;-78
2023/12/21 09:36:05;;;;;;;7.78;2.97;;;;;;;9.41;100.00;99581.75;6304135;22;20003;-78
2023/12/21 09:38:34;;;;;;;6.85;2.55;;;;;;;9.43;100.00;99580.47;6304216;22;20031;-80
2023/12/21 09:40:59;;;;;;;9.10;3.10;;;;;;;9.41;100.00;99582.56;6304712;22;20352;-82
2023/12/21 09:43:25;;;;;;;7.47;2.35;;;;;;;9.43;100.00;99599.13;6306323;22;20007;-77
2023/12/21 09:45:54;;;;;;;6.25;2.53;;;;;;;9.42;100.00;99562.81;6306047;22;20017;-78
2023/12/21 09:48:23;;;;;;;9.98;2.45;;;;;;;9.61;100.00;99595.47;6304423;22;20007;-77
2023/12/21 09:50:49;;;;;;;9.73;2.28;;;;;;;9.70;100.00;99574.56;6305755;22;20454;-78
2023/12/21 09:53:21;;;;;;;6.57;2.60;;;;;;;9.67;100.00;99567.84;6304439;22;20003;-77
2023/12/21 09:55:49;;;;;;;6.68;2.30;;;;;;;9.82;100.00;99593.97;6304172;22;20030;-78
2023/12/21 09:58:15;;;;;;;5.65;2.40;;;;;;;9.76;100.00;99579.72;6305861;22;20010;-79
2023/12/21 10:00:41;;;;;;;8.00;2.55;;;;;;;9.80;100.00;99564.03;6303729;22;20007;-78
2023/12/21 10:03:06;;;;;;;8.02;2.70;;;;;;;9.85;100.00;99500.09;6305853;22;20035;-81
2023/12/21 10:05:32;;;;;;;7.00;2.53;;;;;;;9.99;100.00;99561.97;6305679;22;20011;-79
2023/12/21 10:08:05;;;;;;;9.25;2.53;;;;;;;10.08;100.00;99589.91;6305805;22;20074;-81
2023/12/21 10:10:30;;;;;;;8.48;2.20;;;;;;;10.06;100.00;99590.13;6304003;22;20424;-79
2023/12/21 10:12:58;;;;;;;8.77;2.80;;;;;;;10.08;100.00;99577.34;6305679;22;20022;-80
2023/12/21 10:15:23;;;;;;;9.85;2.50;;;;;;;10.15;100.00;99575.34;6304066;22;20440;-78
2023/12/21 10:17:49;;;;;;;3.33;1.83;;;;;;;10.17;100.00;99562.56;6305627;22;20034;-78
2023/12/21 10:20:14;;;;;;;7.68;2.05;;;;;;;10.28;100.00;99573.44;6305792;22;20056;-80
2023/12/21 10:22:42;;;;;;;4.18;2.20;;;;;;;10.32;100.00;99566.53;6305684;22;20031;-78
2023/12/21 10:25:11;;;;;;;7.05;2.40;;;;;;;10.24;100.00;99565.09;6305614;22;20064;-80
2023/12/21 10:27:37;;;;;;;8.65;2.45;;;;;;;10.36;100.00;99584.50;6305757;22;20046;-77
2023/12/21 10:30:04;;;;;;;5.13;1.83;;;;;;;10.41;100.00;99552.53;6303856;22;20015;-78
2023/12/21 10:32:29;;;;;;;5.60;2.20;;;;;;;10.46;100.00;99562.50;6305475;22;20013;-78
2023/12/21 10:34:58;;;;;;;4.18;1.73;;;;;;;10.35;100.00;99564.19;6303888;22;20002;-78
2023/12/21 10:37:26;;;;;;;10.23;2.65;;;;;;;10.28;100.00;99565.41;6303885;22;20299;-78
2023/12/21 10:39:52;;;;;;;12.73;2.50;;;;;;;10.25;100.00;99566.72;6305584;22;20021;-81
2023/12/21 10:42:19;;;;;;;8.30;2.20;;;;;;;10.31;100.00;99538.22;6305556;22;20026;-78
2023/12/21 10:44:48;;;;;;;6.38;2.00;;;;;;;10.50;100.00;99561.75;6305693;22;20030;-78
2023/12/21 10:47:16;;;;;;;6.70;2.35;;;;;;;10.58;100.00;99549.03;6303939;22;20007;-77
2023/12/21 10:49:43;;;;;;;4.00;1.55;;;;;;;10.53;100.00;99563.94;6303913;22;20007;-80
2023/12/21 10:52:11;;;;;;;8.10;1.80;;;;;;;10.56;100.00;99557.28;6303683;22;20082;-77
2023/12/21 10:54:37;;;;;;;6.60;2.08;;;;;;;10.47;100.00;99522.16;6305477;22;20008;-77
2023/12/21 10:57:05;;;;;;;5.63;2.00;;;;;;;10.39;100.00;99532.44;6305178;22;20003;-78
2023/12/21 10:59:33;;;;;;;6.25;2.15;;;;;;;10.31;100.00;99548.88;6303699;22;20090;-77
2023/12/21 11:01:59;;;;;;;2.00;1.40;;;;;;;10.37;100.00;99550.59;6305434;22;20048;-76
2023/12/21 11:04:27;;;;;;;6.05;1.63;;;;;;;10.42;100.00;99548.00;6305367;22;20003;-79
2023/12/21 11:06:54;;;;;;;2.80;1.65;;;;;;;10.18;100.00;99513.44;6303743;22;20008;-80
2023/12/21 11:09:31;;;;;;;6.20;2.03;;;;;;;10.19;100.00;99520.38;6303553;22;20011;-82
2023/12/21 11:12:03;;;;;;;5.40;2.10;;;;;;;10.18;100.00;99491.25;6304174;22;20053;-78
2023/12/21 11:14:28;;;;;;;7.03;2.55;;;;;;;10.26;100.00;99511.41;6306621;22;20011;-78
2023/12/21 11:16:58;;;;;;;6.10;1.98;;;;;;;10.51;100.00;99515.28;6306526;22;20375;-80